sensor_id;sensor_type;location;lat;lon;timestamp;P1;durP1;ratioP1;P2;durP2;ratioP2
29202;SDS011;16245;51.170;4.884;2023-04-03T05:00:12;6.75;;;6.00;;
29202;SDS011;16245;51.170;4.884;2023-04-03T05:02:38;7.10;;;6.05;;
29202;SDS011;16245;51.170;4.884;2023-04-03T05:05:04;7.40;;;6.55;;
29202;SDS011;16245;51.170;4.884;2023-04-03T05:07:30;9.00;;;6.82;;
29202;SDS011;16245;51.170;4.884;2023-04-03T05:09:55;9.75;;;7.05;;
29202;SDS011;16245;51.170;4.884;2023-04-03T05:12:21;10.98;;;7.63;;
29202;SDS011;16245;51.170;4.884;2023-04-03T05:14:47;13.55;;;7.35;;
29202;SDS011;16245;51.170;4.884;2023-04-03T05:17:12;7.65;;;6.55;;
29202;SDS011;16245;51.170;4.884;2023-04-03T05:19:38;10.85;;;6.47;;
29202;SDS011;16245;51.170;4.884;2023-04-03T05:22:04;8.77;;;6.30;;
29202;SDS011;16245;51.170;4.884;2023-04-03T05:24:29;8.20;;;6.00;;
29202;SDS011;16245;51.170;4.884;2023-04-03T05:26:55;8.57;;;6.30;;
29202;SDS011;16245;51.170;4.884;2023-04-03T05:29:21;15.75;;;6.85;;
29202;SDS011;16245;51.170;4.884;2023-04-03T05:31:48;8.95;;;6.55;;
29202;SDS011;16245;51.170;4.884;2023-04-03T05:34:15;7.90;;;7.10;;
29202;SDS011;16245;51.170;4.884;2023-04-03T05:36:41;9.35;;;7.63;;
29202;SDS011;16245;51.170;4.884;2023-04-03T05:39:07;8.43;;;6.80;;
29202;SDS011;16245;51.170;4.884;2023-04-03T05:41:32;9.68;;;6.95;;
29202;SDS011;16245;51.170;4.884;2023-04-03T05:43:58;9.93;;;6.00;;
29202;SDS011;16245;51.170;4.884;2023-04-03T05:46:24;7.30;;;5.93;;
29202;SDS011;16245;51.170;4.884;2023-04-03T05:48:50;8.48;;;6.07;;
29202;SDS011;16245;51.170;4.884;2023-04-03T05:51:21;7.57;;;6.13;;
29202;SDS011;16245;51.170;4.884;2023-04-03T05:53:51;6.50;;;5.70;;
29202;SDS011;16245;51.170;4.884;2023-04-03T05:56:21;5.88;;;5.07;;
29202;SDS011;16245;51.170;4.884;2023-04-03T05:58:47;6.65;;;5.78;;
29202;SDS011;16245;51.170;4.884;2023-04-03T06:01:13;7.03;;;5.38;;
29202;SDS011;16245;51.170;4.884;2023-04-03T06:03:38;10.52;;;5.40;;
29202;SDS011;16245;51.170;4.884;2023-04-03T06:06:05;6.82;;;5.20;;
29202;SDS011;16245;51.170;4.884;2023-04-03T06:08:31;7.63;;;5.68;;
29202;SDS011;16245;51.170;4.884;2023-04-03T06:10:57;8.63;;;5.80;;
29202;SDS011;16245;51.170;4.884;2023-04-03T06:13:24;7.72;;;5.35;;
29202;SDS011;16245;51.170;4.884;2023-04-03T06:15:50;7.72;;;5.65;;
29202;SDS011;16245;51.170;4.884;2023-04-03T06:18:16;11.73;;;5.30;;
29202;SDS011;16245;51.170;4.884;2023-04-03T06:20:41;8.82;;;5.03;;
29202;SDS011;16245;51.170;4.884;2023-04-03T06:23:07;10.95;;;5.68;;
29202;SDS011;16245;51.170;4.884;2023-04-03T06:25:32;9.07;;;5.00;;
29202;SDS011;16245;51.170;4.884;2023-04-03T06:27:58;9.30;;;5.30;;
29202;SDS011;16245;51.170;4.884;2023-04-03T06:30:24;11.85;;;4.90;;
29202;SDS011;16245;51.170;4.884;2023-04-03T06:32:50;12.82;;;4.88;;
29202;SDS011;16245;51.170;4.884;2023-04-03T06:35:17;7.15;;;4.68;;
29202;SDS011;16245;51.170;4.884;2023-04-03T06:37:42;8.25;;;5.07;;
29202;SDS011;16245;51.170;4.884;2023-04-03T06:40:12;8.15;;;4.93;;
29202;SDS011;16245;51.170;4.884;2023-04-03T06:42:45;6.85;;;4.10;;
29202;SDS011;16245;51.170;4.884;2023-04-03T06:45:11;8.63;;;4.43;;
29202;SDS011;16245;51.170;4.884;2023-04-03T06:47:37;4.85;;;3.70;;
29202;SDS011;16245;51.170;4.884;2023-04-03T06:50:02;7.97;;;4.63;;
29202;SDS011;16245;51.170;4.884;2023-04-03T06:52:28;5.53;;;4.00;;
29202;SDS011;16245;51.170;4.884;2023-04-03T06:54:54;5.78;;;3.53;;
29202;SDS011;16245;51.170;4.884;2023-04-03T06:57:22;6.30;;;3.55;;
29202;SDS011;16245;51.170;4.884;2023-04-03T06:59:49;8.27;;;3.30;;
29202;SDS011;16245;51.170;4.884;2023-04-03T07:02:15;11.63;;;4.57;;
29202;SDS011;16245;51.170;4.884;2023-04-03T07:04:40;6.05;;;3.60;;
29202;SDS011;16245;51.170;4.884;2023-04-03T07:07:06;5.80;;;3.38;;
29202;SDS011;16245;51.170;4.884;2023-04-03T07:09:32;3.90;;;3.17;;
29202;SDS011;16245;51.170;4.884;2023-04-03T07:11:58;5.82;;;2.90;;
29202;SDS011;16245;51.170;4.884;2023-04-03T07:14:23;4.72;;;3.05;;
29202;SDS011;16245;51.170;4.884;2023-04-03T07:16:49;6.00;;;2.88;;
29202;SDS011;16245;51.170;4.884;2023-04-03T07:19:15;4.25;;;2.38;;
29202;SDS011;16245;51.170;4.884;2023-04-03T07:21:43;6.38;;;3.10;;
29202;SDS011;16245;51.170;4.884;2023-04-03T07:24:09;7.88;;;3.22;;
29202;SDS011;16245;51.170;4.884;2023-04-03T07:26:35;3.88;;;2.58;;
29202;SDS011;16245;51.170;4.884;2023-04-03T07:29:01;7.50;;;3.38;;
29202;SDS011;16245;51.170;4.884;2023-04-03T07:31:27;6.10;;;2.63;;
29202;SDS011;16245;51.170;4.884;2023-04-03T07:33:53;5.40;;;2.78;;
29202;SDS011;16245;51.170;4.884;2023-04-03T07:36:22;4.60;;;2.92;;
29202;SDS011;16245;51.170;4.884;2023-04-03T07:38:48;6.03;;;2.72;;
29202;SDS011;16245;51.170;4.884;2023-04-03T07:41:15;7.13;;;2.92;;
29202;SDS011;16245;51.170;4.884;2023-04-03T07:43:43;5.07;;;2.75;;
29202;SDS011;16245;51.170;4.884;2023-04-03T07:46:10;5.32;;;2.60;;
29202;SDS011;16245;51.170;4.884;2023-04-03T07:48:36;5.32;;;2.75;;
29202;SDS011;16245;51.170;4.884;2023-04-03T07:51:02;4.13;;;2.15;;
29202;SDS011;16245;51.170;4.884;2023-04-03T07:53:29;5.88;;;2.53;;
29202;SDS011;16245;51.170;4.884;2023-04-03T07:55:56;4.93;;;2.83;;
29202;SDS011;16245;51.170;4.884;2023-04-03T07:58:22;4.10;;;2.50;;
29202;SDS011;16245;51.170;4.884;2023-04-03T08:00:48;4.90;;;2.45;;
29202;SDS011;16245;51.170;4.884;2023-04-03T08:03:14;5.25;;;2.20;;
29202;SDS011;16245;51.170;4.884;2023-04-03T08:05:42;5.53;;;2.85;;
29202;SDS011;16245;51.170;4.884;2023-04-03T08:08:13;6.05;;;2.25;;
29202;SDS011;16245;51.170;4.884;2023-04-03T08:10:43;5.05;;;2.40;;
29202;SDS011;16245;51.170;4.884;2023-04-03T08:13:12;4.07;;;2.50;;
29202;SDS011;16245;51.170;4.884;2023-04-03T08:15:38;5.95;;;2.50;;
29202;SDS011;16245;51.170;4.884;2023-04-03T08:18:04;5.97;;;2.80;;
29202;SDS011;16245;51.170;4.884;2023-04-03T08:20:29;6.72;;;2.50;;
29202;SDS011;16245;51.170;4.884;2023-04-03T08:22:55;4.18;;;2.30;;
29202;SDS011;16245;51.170;4.884;2023-04-03T08:25:21;6.18;;;2.95;;
29202;SDS011;16245;51.170;4.884;2023-04-03T08:27:47;4.72;;;2.65;;
29202;SDS011;16245;51.170;4.884;2023-04-03T08:30:13;4.57;;;2.40;;
29202;SDS011;16245;51.170;4.884;2023-04-03T08:32:39;4.75;;;2.40;;
29202;SDS011;16245;51.170;4.884;2023-04-03T08:35:07;4.85;;;2.33;;
29202;SDS011;16245;51.170;4.884;2023-04-03T08:37:34;5.78;;;2.05;;
29202;SDS011;16245;51.170;4.884;2023-04-03T08:40:02;4.93;;;2.13;;
29202;SDS011;16245;51.170;4.884;2023-04-03T08:46:07;5.20;;;2.67;;
29202;SDS011;16245;51.170;4.884;2023-04-03T08:48:27;5.53;;;2.20;;
29202;SDS011;16245;51.170;4.884;2023-04-03T08:50:58;7.03;;;3.08;;
29202;SDS011;16245;51.170;4.884;2023-04-03T08:53:28;3.97;;;2.20;;
29202;SDS011;16245;51.170;4.884;2023-04-03T08:55:57;4.22;;;2.30;;
29202;SDS011;16245;51.170;4.884;2023-04-03T08:58:30;6.13;;;2.50;;
29202;SDS011;16245;51.170;4.884;2023-04-03T09:01:25;4.72;;;1.98;;
29202;SDS011;16245;51.170;4.884;2023-04-03T09:03:54;4.55;;;2.45;;
29202;SDS011;16245;51.170;4.884;2023-04-03T09:06:24;5.53;;;2.38;;
29202;SDS011;16245;51.170;4.884;2023-04-03T09:14:18;4.90;;;2.80;;
29202;SDS011;16245;51.170;4.884;2023-04-03T09:16:58;6.35;;;2.10;;
29202;SDS011;16245;51.170;4.884;2023-04-03T09:19:34;4.25;;;1.80;;
29202;SDS011;16245;51.170;4.884;2023-04-03T09:24:44;4.20;;;2.17;;
29202;SDS011;16245;51.170;4.884;2023-04-03T09:27:12;4.00;;;2.20;;
29202;SDS011;16245;51.170;4.884;2023-04-03T09:29:39;4.82;;;2.03;;
29202;SDS011;16245;51.170;4.884;2023-04-03T09:34:54;4.18;;;2.00;;
29202;SDS011;16245;51.170;4.884;2023-04-03T09:37:33;5.18;;;2.22;;
29202;SDS011;16245;51.170;4.884;2023-04-03T09:43:33;3.90;;;2.30;;
29202;SDS011;16245;51.170;4.884;2023-04-03T09:45:43;2.95;;;1.77;;
29202;SDS011;16245;51.170;4.884;2023-04-03T09:58:40;5.20;;;1.98;;
29202;SDS011;16245;51.170;4.884;2023-04-03T10:04:18;3.60;;;1.83;;
29202;SDS011;16245;51.170;4.884;2023-04-03T10:06:47;4.75;;;1.65;;
29202;SDS011;16245;51.170;4.884;2023-04-03T10:12:19;2.38;;;1.40;;
29202;SDS011;16245;51.170;4.884;2023-04-03T10:14:58;3.80;;;1.70;;
29202;SDS011;16245;51.170;4.884;2023-04-03T10:20:09;4.43;;;1.60;;
29202;SDS011;16245;51.170;4.884;2023-04-03T10:23:02;2.75;;;1.30;;
29202;SDS011;16245;51.170;4.884;2023-04-03T10:29:09;2.72;;;1.42;;
29202;SDS011;16245;51.170;4.884;2023-04-03T10:34:45;2.28;;;1.23;;
29202;SDS011;16245;51.170;4.884;2023-04-03T10:37:24;2.10;;;1.55;;
29202;SDS011;16245;51.170;4.884;2023-04-03T10:45:48;1.98;;;1.17;;
29202;SDS011;16245;51.170;4.884;2023-04-03T10:48:04;3.90;;;1.58;;
29202;SDS011;16245;51.170;4.884;2023-04-03T10:50:43;2.05;;;1.10;;
29202;SDS011;16245;51.170;4.884;2023-04-03T10:56:31;2.30;;;0.98;;
29202;SDS011;16245;51.170;4.884;2023-04-03T11:01:56;3.65;;;0.90;;
29202;SDS011;16245;51.170;4.884;2023-04-03T11:04:40;2.15;;;0.88;;
29202;SDS011;16245;51.170;4.884;2023-04-03T11:07:23;1.38;;;0.98;;
29202;SDS011;16245;51.170;4.884;2023-04-03T11:09:53;2.60;;;1.10;;
29202;SDS011;16245;51.170;4.884;2023-04-03T11:15:11;2.15;;;1.10;;
29202;SDS011;16245;51.170;4.884;2023-04-03T11:17:41;3.38;;;1.15;;
29202;SDS011;16245;51.170;4.884;2023-04-03T11:22:53;3.65;;;1.33;;
29202;SDS011;16245;51.170;4.884;2023-04-03T11:25:25;3.58;;;1.30;;
29202;SDS011;16245;51.170;4.884;2023-04-03T11:27:59;1.65;;;1.05;;
29202;SDS011;16245;51.170;4.884;2023-04-03T11:35:54;1.85;;;1.15;;
29202;SDS011;16245;51.170;4.884;2023-04-03T11:38:33;5.00;;;1.33;;
29202;SDS011;16245;51.170;4.884;2023-04-03T11:41:04;1.50;;;1.20;;
29202;SDS011;16245;51.170;4.884;2023-04-03T11:43:33;3.35;;;1.40;;
29202;SDS011;16245;51.170;4.884;2023-04-03T11:46:05;3.47;;;1.20;;
29202;SDS011;16245;51.170;4.884;2023-04-03T11:51:37;3.15;;;1.13;;
29202;SDS011;16245;51.170;4.884;2023-04-03T11:53:54;2.85;;;1.33;;
29202;SDS011;16245;51.170;4.884;2023-04-03T11:56:58;2.15;;;1.15;;
29202;SDS011;16245;51.170;4.884;2023-04-03T11:59:24;3.33;;;1.30;;
29202;SDS011;16245;51.170;4.884;2023-04-03T12:01:54;4.68;;;1.45;;
29202;SDS011;16245;51.170;4.884;2023-04-03T12:04:24;2.47;;;1.50;;
29202;SDS011;16245;51.170;4.884;2023-04-03T12:06:53;2.55;;;1.30;;
29202;SDS011;16245;51.170;4.884;2023-04-03T12:12:22;3.30;;;1.70;;
29202;SDS011;16245;51.170;4.884;2023-04-03T12:15:52;3.30;;;1.60;;
29202;SDS011;16245;51.170;4.884;2023-04-03T12:26:22;3.72;;;1.52;;
29202;SDS011;16245;51.170;4.884;2023-04-03T12:28:52;1.38;;;1.20;;
29202;SDS011;16245;51.170;4.884;2023-04-03T12:31:20;4.90;;;1.55;;
29202;SDS011;16245;51.170;4.884;2023-04-03T12:33:58;2.33;;;1.20;;
29202;SDS011;16245;51.170;4.884;2023-04-03T12:37:21;4.80;;;1.33;;
29202;SDS011;16245;51.170;4.884;2023-04-03T12:39:55;3.03;;;1.80;;
29202;SDS011;16245;51.170;4.884;2023-04-03T12:42:47;5.82;;;1.88;;
29202;SDS011;16245;51.170;4.884;2023-04-03T12:48:52;2.25;;;1.48;;
29202;SDS011;16245;51.170;4.884;2023-04-03T12:51:34;11.52;;;2.33;;
29202;SDS011;16245;51.170;4.884;2023-04-03T12:54:27;2.28;;;1.50;;
29202;SDS011;16245;51.170;4.884;2023-04-03T12:57:21;2.83;;;1.40;;
29202;SDS011;16245;51.170;4.884;2023-04-03T12:59:51;3.45;;;1.65;;
29202;SDS011;16245;51.170;4.884;2023-04-03T13:04:46;3.35;;;1.63;;
29202;SDS011;16245;51.170;4.884;2023-04-03T13:07:25;3.35;;;1.98;;
29202;SDS011;16245;51.170;4.884;2023-04-03T13:10:03;2.22;;;1.33;;
29202;SDS011;16245;51.170;4.884;2023-04-03T13:12:44;2.47;;;1.35;;
29202;SDS011;16245;51.170;4.884;2023-04-03T13:15:24;2.72;;;1.10;;
29202;SDS011;16245;51.170;4.884;2023-04-03T13:17:52;1.42;;;1.10;;
29202;SDS011;16245;51.170;4.884;2023-04-03T13:23:00;2.55;;;1.42;;
29202;SDS011;16245;51.170;4.884;2023-04-03T13:25:34;4.18;;;1.50;;
29202;SDS011;16245;51.170;4.884;2023-04-03T13:28:04;6.35;;;1.40;;
29202;SDS011;16245;51.170;4.884;2023-04-03T13:30:32;3.42;;;1.38;;
29202;SDS011;16245;51.170;4.884;2023-04-03T13:33:02;3.22;;;1.50;;
29202;SDS011;16245;51.170;4.884;2023-04-03T13:35:39;5.35;;;1.80;;
29202;SDS011;16245;51.170;4.884;2023-04-03T13:40:47;1.83;;;1.05;;
29202;SDS011;16245;51.170;4.884;2023-04-03T13:43:21;5.57;;;1.52;;
29202;SDS011;16245;51.170;4.884;2023-04-03T13:48:46;1.80;;;1.23;;
29202;SDS011;16245;51.170;4.884;2023-04-03T13:53:54;2.15;;;1.20;;
29202;SDS011;16245;51.170;4.884;2023-04-03T13:56:23;2.72;;;1.35;;
29202;SDS011;16245;51.170;4.884;2023-04-03T13:58:54;5.10;;;1.65;;
29202;SDS011;16245;51.170;4.884;2023-04-03T14:01:26;3.88;;;1.33;;
29202;SDS011;16245;51.170;4.884;2023-04-03T14:04:11;4.38;;;1.33;;
29202;SDS011;16245;51.170;4.884;2023-04-03T14:06:40;2.45;;;1.40;;
29202;SDS011;16245;51.170;4.884;2023-04-03T14:09:06;3.80;;;1.33;;
29202;SDS011;16245;51.170;4.884;2023-04-03T14:11:32;2.30;;;1.25;;
29202;SDS011;16245;51.170;4.884;2023-04-03T14:14:00;3.67;;;1.50;;
29202;SDS011;16245;51.170;4.884;2023-04-03T14:16:31;2.50;;;1.45;;
29202;SDS011;16245;51.170;4.884;2023-04-03T14:19:01;2.50;;;1.38;;
29202;SDS011;16245;51.170;4.884;2023-04-03T14:21:27;5.20;;;1.63;;
29202;SDS011;16245;51.170;4.884;2023-04-03T14:23:53;2.08;;;1.00;;
29202;SDS011;16245;51.170;4.884;2023-04-03T14:26:23;2.30;;;1.17;;
29202;SDS011;16245;51.170;4.884;2023-04-03T14:28:52;2.38;;;1.23;;
29202;SDS011;16245;51.170;4.884;2023-04-03T14:31:19;5.32;;;1.88;;
29202;SDS011;16245;51.170;4.884;2023-04-03T14:33:46;3.00;;;1.10;;
29202;SDS011;16245;51.170;4.884;2023-04-03T14:36:17;4.35;;;1.50;;
29202;SDS011;16245;51.170;4.884;2023-04-03T14:38:48;3.40;;;1.20;;
29202;SDS011;16245;51.170;4.884;2023-04-03T14:41:16;3.00;;;1.40;;
29202;SDS011;16245;51.170;4.884;2023-04-03T14:43:44;4.57;;;1.70;;
29202;SDS011;16245;51.170;4.884;2023-04-03T14:46:15;1.90;;;1.48;;
29202;SDS011;16245;51.170;4.884;2023-04-03T14:48:43;5.28;;;1.40;;
29202;SDS011;16245;51.170;4.884;2023-04-03T14:51:10;3.03;;;1.42;;
29202;SDS011;16245;51.170;4.884;2023-04-03T14:53:37;1.95;;;1.35;;
29202;SDS011;16245;51.170;4.884;2023-04-03T14:56:08;2.85;;;1.30;;
29202;SDS011;16245;51.170;4.884;2023-04-03T14:58:36;1.70;;;1.15;;
29202;SDS011;16245;51.170;4.884;2023-04-03T15:01:02;2.92;;;1.35;;
29202;SDS011;16245;51.170;4.884;2023-04-03T15:03:28;4.20;;;1.38;;
29202;SDS011;16245;51.170;4.884;2023-04-03T15:05:54;2.40;;;1.25;;
29202;SDS011;16245;51.170;4.884;2023-04-03T15:08:24;5.00;;;1.63;;
29202;SDS011;16245;51.170;4.884;2023-04-03T15:10:51;2.97;;;1.45;;
29202;SDS011;16245;51.170;4.884;2023-04-03T15:13:21;2.35;;;1.60;;
29202;SDS011;16245;51.170;4.884;2023-04-03T15:15:47;3.65;;;1.75;;
29202;SDS011;16245;51.170;4.884;2023-04-03T15:18:15;4.85;;;1.67;;
29202;SDS011;16245;51.170;4.884;2023-04-03T15:20:43;2.08;;;1.40;;
29202;SDS011;16245;51.170;4.884;2023-04-03T15:23:13;2.85;;;1.35;;
29202;SDS011;16245;51.170;4.884;2023-04-03T15:25:41;6.72;;;2.00;;
29202;SDS011;16245;51.170;4.884;2023-04-03T15:28:09;3.85;;;1.80;;
29202;SDS011;16245;51.170;4.884;2023-04-03T15:30:42;4.90;;;1.80;;
29202;SDS011;16245;51.170;4.884;2023-04-03T15:33:08;2.47;;;1.60;;
29202;SDS011;16245;51.170;4.884;2023-04-03T15:35:34;3.92;;;1.90;;
29202;SDS011;16245;51.170;4.884;2023-04-03T15:38:00;3.63;;;1.88;;
29202;SDS011;16245;51.170;4.884;2023-04-03T15:40:25;4.90;;;2.00;;
29202;SDS011;16245;51.170;4.884;2023-04-03T15:42:51;3.85;;;2.15;;
29202;SDS011;16245;51.170;4.884;2023-04-03T15:45:17;4.95;;;1.70;;
29202;SDS011;16245;51.170;4.884;2023-04-03T15:47:43;4.75;;;1.52;;
29202;SDS011;16245;51.170;4.884;2023-04-03T15:50:08;3.88;;;1.60;;
29202;SDS011;16245;51.170;4.884;2023-04-03T15:52:34;2.90;;;1.85;;
29202;SDS011;16245;51.170;4.884;2023-04-03T15:55:01;4.40;;;1.50;;
29202;SDS011;16245;51.170;4.884;2023-04-03T15:57:27;4.65;;;1.52;;
29202;SDS011;16245;51.170;4.884;2023-04-03T15:59:53;4.65;;;1.77;;
29202;SDS011;16245;51.170;4.884;2023-04-03T16:02:19;2.60;;;1.67;;
29202;SDS011;16245;51.170;4.884;2023-04-03T16:04:44;3.42;;;1.95;;
29202;SDS011;16245;51.170;4.884;2023-04-03T16:07:10;2.90;;;1.67;;
29202;SDS011;16245;51.170;4.884;2023-04-03T16:09:36;4.20;;;1.85;;
29202;SDS011;16245;51.170;4.884;2023-04-03T16:12:02;3.95;;;2.10;;
29202;SDS011;16245;51.170;4.884;2023-04-03T16:14:28;2.90;;;1.88;;
29202;SDS011;16245;51.170;4.884;2023-04-03T16:16:55;4.43;;;1.83;;
29202;SDS011;16245;51.170;4.884;2023-04-03T16:19:22;2.83;;;1.80;;
29202;SDS011;16245;51.170;4.884;2023-04-03T16:21:48;2.70;;;1.67;;
29202;SDS011;16245;51.170;4.884;2023-04-03T16:24:14;2.90;;;1.40;;
29202;SDS011;16245;51.170;4.884;2023-04-03T16:26:40;6.32;;;1.48;;
29202;SDS011;16245;51.170;4.884;2023-04-03T16:29:05;3.17;;;1.98;;
29202;SDS011;16245;51.170;4.884;2023-04-03T16:31:31;3.72;;;1.98;;
29202;SDS011;16245;51.170;4.884;2023-04-03T16:33:58;4.50;;;1.60;;
29202;SDS011;16245;51.170;4.884;2023-04-03T16:36:25;2.53;;;1.88;;
29202;SDS011;16245;51.170;4.884;2023-04-03T16:38:51;3.67;;;2.15;;
29202;SDS011;16245;51.170;4.884;2023-04-03T16:41:16;3.53;;;1.60;;
29202;SDS011;16245;51.170;4.884;2023-04-03T16:43:42;3.70;;;1.48;;
29202;SDS011;16245;51.170;4.884;2023-04-03T16:46:08;4.95;;;1.70;;
29202;SDS011;16245;51.170;4.884;2023-04-03T16:48:34;4.68;;;1.90;;
29202;SDS011;16245;51.170;4.884;2023-04-03T16:51:00;5.50;;;2.00;;
29202;SDS011;16245;51.170;4.884;2023-04-03T16:53:26;4.53;;;1.40;;
29202;SDS011;16245;51.170;4.884;2023-04-03T16:55:52;3.53;;;2.08;;
29202;SDS011;16245;51.170;4.884;2023-04-03T16:58:18;3.53;;;1.63;;
29202;SDS011;16245;51.170;4.884;2023-04-03T17:00:44;3.40;;;2.05;;
29202;SDS011;16245;51.170;4.884;2023-04-03T17:03:10;5.05;;;1.83;;
29202;SDS011;16245;51.170;4.884;2023-04-03T17:05:35;3.70;;;1.95;;
29202;SDS011;16245;51.170;4.884;2023-04-03T17:08:01;3.85;;;1.80;;
29202;SDS011;16245;51.170;4.884;2023-04-03T17:10:27;3.30;;;2.08;;
29202;SDS011;16245;51.170;4.884;2023-04-03T17:12:53;3.13;;;1.80;;
29202;SDS011;16245;51.170;4.884;2023-04-03T17:15:19;5.22;;;2.15;;
29202;SDS011;16245;51.170;4.884;2023-04-03T17:17:48;2.75;;;1.83;;
29202;SDS011;16245;51.170;4.884;2023-04-03T17:20:16;3.22;;;1.83;;
29202;SDS011;16245;51.170;4.884;2023-04-03T17:22:42;4.18;;;1.73;;
29202;SDS011;16245;51.170;4.884;2023-04-03T17:25:09;3.15;;;1.55;;
29202;SDS011;16245;51.170;4.884;2023-04-03T17:27:35;4.07;;;1.80;;
29202;SDS011;16245;51.170;4.884;2023-04-03T17:30:01;3.10;;;1.73;;
29202;SDS011;16245;51.170;4.884;2023-04-03T17:32:26;4.32;;;1.85;;
29202;SDS011;16245;51.170;4.884;2023-04-03T17:34:52;3.53;;;1.67;;
29202;SDS011;16245;51.170;4.884;2023-04-03T17:37:18;4.40;;;1.75;;
29202;SDS011;16245;51.170;4.884;2023-04-03T17:39:43;3.38;;;2.05;;
29202;SDS011;16245;51.170;4.884;2023-04-03T17:42:10;4.60;;;1.50;;
29202;SDS011;16245;51.170;4.884;2023-04-03T17:44:36;4.25;;;1.80;;
29202;SDS011;16245;51.170;4.884;2023-04-03T17:47:02;4.00;;;1.90;;
29202;SDS011;16245;51.170;4.884;2023-04-03T17:49:28;5.38;;;1.70;;
29202;SDS011;16245;51.170;4.884;2023-04-03T17:51:53;5.32;;;1.85;;
29202;SDS011;16245;51.170;4.884;2023-04-03T17:54:20;5.03;;;1.88;;
29202;SDS011;16245;51.170;4.884;2023-04-03T17:56:45;5.93;;;1.88;;
29202;SDS011;16245;51.170;4.884;2023-04-03T17:59:14;8.05;;;1.70;;
29202;SDS011;16245;51.170;4.884;2023-04-03T18:01:42;3.42;;;1.90;;
29202;SDS011;16245;51.170;4.884;2023-04-03T18:04:12;6.85;;;2.38;;
29202;SDS011;16245;51.170;4.884;2023-04-03T18:12:02;4.28;;;2.15;;
29202;SDS011;16245;51.170;4.884;2023-04-03T18:14:30;2.55;;;1.42;;
29202;SDS011;16245;51.170;4.884;2023-04-03T18:16:58;5.32;;;1.60;;
29202;SDS011;16245;51.170;4.884;2023-04-03T18:19:24;2.30;;;1.30;;
29202;SDS011;16245;51.170;4.884;2023-04-03T18:21:51;4.30;;;2.00;;
29202;SDS011;16245;51.170;4.884;2023-04-03T18:24:20;4.25;;;1.55;;
29202;SDS011;16245;51.170;4.884;2023-04-03T18:26:51;2.88;;;1.65;;
29202;SDS011;16245;51.170;4.884;2023-04-03T18:29:22;3.33;;;1.70;;
29202;SDS011;16245;51.170;4.884;2023-04-03T18:31:49;5.85;;;1.88;;
29202;SDS011;16245;51.170;4.884;2023-04-03T18:34:17;5.47;;;1.98;;
29202;SDS011;16245;51.170;4.884;2023-04-03T18:43:27;3.25;;;1.77;;
29202;SDS011;16245;51.170;4.884;2023-04-03T18:45:52;3.08;;;1.90;;
29202;SDS011;16245;51.170;4.884;2023-04-03T18:48:19;3.88;;;1.60;;
29202;SDS011;16245;51.170;4.884;2023-04-03T18:50:45;5.47;;;2.13;;
29202;SDS011;16245;51.170;4.884;2023-04-03T18:53:12;6.05;;;1.80;;
29202;SDS011;16245;51.170;4.884;2023-04-03T18:55:38;4.53;;;1.95;;
29202;SDS011;16245;51.170;4.884;2023-04-03T18:58:04;3.40;;;1.67;;
29202;SDS011;16245;51.170;4.884;2023-04-03T19:00:30;4.57;;;1.60;;
29202;SDS011;16245;51.170;4.884;2023-04-03T19:02:56;5.68;;;2.20;;
29202;SDS011;16245;51.170;4.884;2023-04-03T19:05:22;5.63;;;1.80;;
29202;SDS011;16245;51.170;4.884;2023-04-03T19:07:51;4.30;;;1.88;;
29202;SDS011;16245;51.170;4.884;2023-04-03T19:10:19;3.17;;;1.63;;
29202;SDS011;16245;51.170;4.884;2023-04-03T19:12:46;3.95;;;1.88;;
29202;SDS011;16245;51.170;4.884;2023-04-03T19:15:14;3.75;;;1.70;;
29202;SDS011;16245;51.170;4.884;2023-04-03T19:17:42;5.07;;;1.88;;
29202;SDS011;16245;51.170;4.884;2023-04-03T19:20:08;3.17;;;2.15;;
29202;SDS011;16245;51.170;4.884;2023-04-03T19:22:35;3.70;;;1.80;;
29202;SDS011;16245;51.170;4.884;2023-04-03T19:25:02;4.28;;;1.63;;
29202;SDS011;16245;51.170;4.884;2023-04-03T19:27:29;4.50;;;2.38;;
29202;SDS011;16245;51.170;4.884;2023-04-03T19:29:55;2.50;;;1.63;;
29202;SDS011;16245;51.170;4.884;2023-04-03T19:32:21;3.78;;;1.60;;
29202;SDS011;16245;51.170;4.884;2023-04-03T19:34:47;5.63;;;1.60;;
29202;SDS011;16245;51.170;4.884;2023-04-03T19:37:12;5.57;;;1.60;;
29202;SDS011;16245;51.170;4.884;2023-04-03T19:39:39;5.78;;;1.85;;
29202;SDS011;16245;51.170;4.884;2023-04-03T19:42:04;2.90;;;1.58;;
29202;SDS011;16245;51.170;4.884;2023-04-03T19:44:32;5.32;;;1.83;;
29202;SDS011;16245;51.170;4.884;2023-04-03T19:46:58;6.60;;;1.70;;
29202;SDS011;16245;51.170;4.884;2023-04-03T19:49:25;6.78;;;2.78;;
29202;SDS011;16245;51.170;4.884;2023-04-03T19:51:50;6.93;;;2.25;;
29202;SDS011;16245;51.170;4.884;2023-04-03T19:54:17;6.18;;;2.28;;
29202;SDS011;16245;51.170;4.884;2023-04-03T19:56:43;6.45;;;2.17;;
29202;SDS011;16245;51.170;4.884;2023-04-03T19:59:09;4.95;;;1.90;;
29202;SDS011;16245;51.170;4.884;2023-04-03T20:01:35;4.63;;;2.40;;
29202;SDS011;16245;51.170;4.884;2023-04-03T20:04:01;4.82;;;2.17;;
29202;SDS011;16245;51.170;4.884;2023-04-03T20:06:27;5.13;;;1.60;;
29202;SDS011;16245;51.170;4.884;2023-04-03T20:08:53;2.42;;;1.77;;
29202;SDS011;16245;51.170;4.884;2023-04-03T20:11:19;3.33;;;1.67;;
29202;SDS011;16245;51.170;4.884;2023-04-03T20:13:48;5.78;;;2.00;;
29202;SDS011;16245;51.170;4.884;2023-04-03T20:16:15;6.18;;;2.63;;
29202;SDS011;16245;51.170;4.884;2023-04-03T20:18:42;5.43;;;1.67;;
29202;SDS011;16245;51.170;4.884;2023-04-03T20:21:08;5.93;;;1.90;;
29202;SDS011;16245;51.170;4.884;2023-04-03T20:23:35;5.68;;;2.20;;
29202;SDS011;16245;51.170;4.884;2023-04-03T20:26:02;4.78;;;1.90;;
29202;SDS011;16245;51.170;4.884;2023-04-03T20:28:29;3.25;;;1.85;;
29202;SDS011;16245;51.170;4.884;2023-04-03T20:30:55;5.80;;;2.10;;
29202;SDS011;16245;51.170;4.884;2023-04-03T20:33:22;3.75;;;2.20;;
29202;SDS011;16245;51.170;4.884;2023-04-03T20:35:50;5.70;;;1.80;;
29202;SDS011;16245;51.170;4.884;2023-04-03T20:38:18;5.93;;;2.22;;
29202;SDS011;16245;51.170;4.884;2023-04-03T20:40:44;3.72;;;2.05;;
29202;SDS011;16245;51.170;4.884;2023-04-03T20:43:10;4.15;;;2.28;;
29202;SDS011;16245;51.170;4.884;2023-04-03T20:45:36;3.88;;;1.85;;
29202;SDS011;16245;51.170;4.884;2023-04-03T20:48:02;4.90;;;1.67;;
29202;SDS011;16245;51.170;4.884;2023-04-03T20:50:30;3.47;;;1.77;;
29202;SDS011;16245;51.170;4.884;2023-04-03T20:52:56;3.53;;;1.70;;
29202;SDS011;16245;51.170;4.884;2023-04-03T20:55:22;3.28;;;1.70;;
29202;SDS011;16245;51.170;4.884;2023-04-03T20:57:48;3.60;;;1.98;;
29202;SDS011;16245;51.170;4.884;2023-04-03T21:00:14;5.55;;;1.90;;
29202;SDS011;16245;51.170;4.884;2023-04-03T21:02:44;3.83;;;1.80;;
29202;SDS011;16245;51.170;4.884;2023-04-03T21:05:11;4.22;;;2.05;;
29202;SDS011;16245;51.170;4.884;2023-04-03T21:19:21;4.20;;;2.15;;
29202;SDS011;16245;51.170;4.884;2023-04-03T21:21:47;6.63;;;2.58;;
29202;SDS011;16245;51.170;4.884;2023-04-03T21:24:15;2.80;;;2.00;;
29202;SDS011;16245;51.170;4.884;2023-04-03T21:26:41;3.05;;;1.52;;
29202;SDS011;16245;51.170;4.884;2023-04-03T21:29:08;2.08;;;1.42;;
29202;SDS011;16245;51.170;4.884;2023-04-03T21:34:16;4.10;;;2.08;;
29202;SDS011;16245;51.170;4.884;2023-04-03T21:36:42;4.65;;;2.17;;
29202;SDS011;16245;51.170;4.884;2023-04-03T21:39:09;5.05;;;2.00;;
29202;SDS011;16245;51.170;4.884;2023-04-03T21:41:35;3.75;;;2.25;;
29202;SDS011;16245;51.170;4.884;2023-04-03T21:44:01;6.63;;;2.40;;
29202;SDS011;16245;51.170;4.884;2023-04-03T21:46:27;7.38;;;2.08;;
29202;SDS011;16245;51.170;4.884;2023-04-03T21:48:52;4.43;;;1.92;;
29202;SDS011;16245;51.170;4.884;2023-04-03T21:51:22;5.93;;;2.30;;
29202;SDS011;16245;51.170;4.884;2023-04-03T21:53:51;3.50;;;2.20;;
29202;SDS011;16245;51.170;4.884;2023-04-03T21:56:20;4.25;;;2.00;;
29202;SDS011;16245;51.170;4.884;2023-04-03T21:58:48;3.42;;;2.00;;